sensor_id;sensor_type;location;lat;lon;timestamp;P1;durP1;ratioP1;P2;durP2;ratioP2
37701;SDS011;23548;51.196;6.838;2022-10-17T00:01:04;13.85;;;12.27;;
37701;SDS011;23548;51.196;6.838;2022-10-17T00:03:30;16.67;;;11.90;;
37701;SDS011;23548;51.196;6.838;2022-10-17T00:05:57;16.90;;;12.35;;
37701;SDS011;23548;51.196;6.838;2022-10-17T00:08:22;17.17;;;11.32;;
37701;SDS011;23548;51.196;6.838;2022-10-17T00:11:01;16.15;;;12.57;;
37701;SDS011;23548;51.196;6.838;2022-10-17T00:13:29;16.75;;;12.02;;
37701;SDS011;23548;51.196;6.838;2022-10-17T00:15:55;17.23;;;11.98;;
37701;SDS011;23548;51.196;6.838;2022-10-17T00:18:22;15.93;;;12.60;;
37701;SDS011;23548;51.196;6.838;2022-10-17T00:20:48;19.80;;;12.23;;
37701;SDS011;23548;51.196;6.838;2022-10-17T00:23:14;18.00;;;12.57;;
37701;SDS011;23548;51.196;6.838;2022-10-17T00:25:40;20.63;;;12.45;;
37701;SDS011;23548;51.196;6.838;2022-10-17T00:28:09;17.20;;;12.23;;
37701;SDS011;23548;51.196;6.838;2022-10-17T00:30:35;18.95;;;12.40;;
37701;SDS011;23548;51.196;6.838;2022-10-17T00:33:01;20.17;;;12.55;;
37701;SDS011;23548;51.196;6.838;2022-10-17T00:35:27;17.02;;;11.77;;
37701;SDS011;23548;51.196;6.838;2022-10-17T00:37:53;19.08;;;12.52;;
37701;SDS011;23548;51.196;6.838;2022-10-17T00:40:18;16.58;;;11.13;;
37701;SDS011;23548;51.196;6.838;2022-10-17T00:42:44;13.88;;;11.50;;
37701;SDS011;23548;51.196;6.838;2022-10-17T00:45:24;13.02;;;11.35;;
37701;SDS011;23548;51.196;6.838;2022-10-17T00:48:03;13.45;;;11.07;;
37701;SDS011;23548;51.196;6.838;2022-10-17T00:50:32;22.70;;;11.68;;
37701;SDS011;23548;51.196;6.838;2022-10-17T00:53:00;16.00;;;11.35;;
37701;SDS011;23548;51.196;6.838;2022-10-17T00:55:30;14.70;;;11.80;;
37701;SDS011;23548;51.196;6.838;2022-10-17T00:57:59;17.08;;;10.70;;
37701;SDS011;23548;51.196;6.838;2022-10-17T01:00:26;15.38;;;11.32;;
37701;SDS011;23548;51.196;6.838;2022-10-17T01:02:52;17.13;;;10.63;;
37701;SDS011;23548;51.196;6.838;2022-10-17T01:05:18;15.27;;;10.40;;
37701;SDS011;23548;51.196;6.838;2022-10-17T01:07:44;13.82;;;10.32;;
37701;SDS011;23548;51.196;6.838;2022-10-17T01:10:12;16.55;;;10.55;;
37701;SDS011;23548;51.196;6.838;2022-10-17T01:15:35;14.48;;;9.95;;
37701;SDS011;23548;51.196;6.838;2022-10-17T01:27:07;14.57;;;9.90;;
37701;SDS011;23548;51.196;6.838;2022-10-17T01:35:09;15.70;;;9.70;;
37701;SDS011;23548;51.196;6.838;2022-10-17T01:37:41;13.48;;;9.95;;
37701;SDS011;23548;51.196;6.838;2022-10-17T01:40:27;13.90;;;10.02;;
37701;SDS011;23548;51.196;6.838;2022-10-17T01:48:14;12.27;;;9.88;;
37701;SDS011;23548;51.196;6.838;2022-10-17T01:50:44;11.00;;;9.50;;
37701;SDS011;23548;51.196;6.838;2022-10-17T01:53:18;12.07;;;9.70;;
37701;SDS011;23548;51.196;6.838;2022-10-17T01:55:51;14.32;;;9.45;;
37701;SDS011;23548;51.196;6.838;2022-10-17T01:58:40;12.18;;;10.07;;
37701;SDS011;23548;51.196;6.838;2022-10-17T02:01:11;15.93;;;9.32;;
37701;SDS011;23548;51.196;6.838;2022-10-17T02:03:38;15.82;;;9.57;;
37701;SDS011;23548;51.196;6.838;2022-10-17T02:06:07;12.73;;;9.45;;
37701;SDS011;23548;51.196;6.838;2022-10-17T02:08:43;16.60;;;9.52;;
37701;SDS011;23548;51.196;6.838;2022-10-17T02:11:12;12.63;;;8.82;;
37701;SDS011;23548;51.196;6.838;2022-10-17T02:13:54;15.75;;;8.85;;
37701;SDS011;23548;51.196;6.838;2022-10-17T02:16:40;11.00;;;8.93;;
37701;SDS011;23548;51.196;6.838;2022-10-17T02:22:36;12.38;;;9.52;;
37701;SDS011;23548;51.196;6.838;2022-10-17T02:25:28;13.20;;;8.98;;
37701;SDS011;23548;51.196;6.838;2022-10-17T02:28:08;12.25;;;8.48;;
37701;SDS011;23548;51.196;6.838;2022-10-17T02:33:32;11.65;;;9.13;;
37701;SDS011;23548;51.196;6.838;2022-10-17T02:36:07;13.18;;;8.55;;
37701;SDS011;23548;51.196;6.838;2022-10-17T02:38:38;13.68;;;9.13;;
37701;SDS011;23548;51.196;6.838;2022-10-17T02:41:06;13.10;;;8.43;;
37701;SDS011;23548;51.196;6.838;2022-10-17T02:43:35;15.55;;;8.43;;
37701;SDS011;23548;51.196;6.838;2022-10-17T02:46:03;9.50;;;8.50;;
37701;SDS011;23548;51.196;6.838;2022-10-17T02:48:33;12.10;;;8.52;;
37701;SDS011;23548;51.196;6.838;2022-10-17T02:51:08;11.98;;;8.95;;
37701;SDS011;23548;51.196;6.838;2022-10-17T02:54:06;12.80;;;8.68;;
37701;SDS011;23548;51.196;6.838;2022-10-17T02:56:41;13.40;;;8.60;;
37701;SDS011;23548;51.196;6.838;2022-10-17T02:59:13;11.18;;;8.73;;
37701;SDS011;23548;51.196;6.838;2022-10-17T03:01:41;11.18;;;8.20;;
37701;SDS011;23548;51.196;6.838;2022-10-17T03:04:09;13.35;;;8.07;;
37701;SDS011;23548;51.196;6.838;2022-10-17T03:06:37;15.50;;;8.38;;
37701;SDS011;23548;51.196;6.838;2022-10-17T03:09:05;10.68;;;7.97;;
37701;SDS011;23548;51.196;6.838;2022-10-17T03:11:32;13.20;;;8.05;;
37701;SDS011;23548;51.196;6.838;2022-10-17T03:13:58;12.38;;;8.27;;
37701;SDS011;23548;51.196;6.838;2022-10-17T03:16:24;10.82;;;8.80;;
37701;SDS011;23548;51.196;6.838;2022-10-17T03:18:50;11.40;;;8.25;;
37701;SDS011;23548;51.196;6.838;2022-10-17T03:21:16;14.63;;;8.35;;
37701;SDS011;23548;51.196;6.838;2022-10-17T03:23:41;12.85;;;8.43;;
37701;SDS011;23548;51.196;6.838;2022-10-17T03:26:08;13.45;;;8.18;;
37701;SDS011;23548;51.196;6.838;2022-10-17T03:28:34;12.60;;;8.75;;
37701;SDS011;23548;51.196;6.838;2022-10-17T03:31:05;16.50;;;8.35;;
37701;SDS011;23548;51.196;6.838;2022-10-17T03:33:32;11.57;;;8.32;;
37701;SDS011;23548;51.196;6.838;2022-10-17T03:35:58;12.02;;;7.93;;
37701;SDS011;23548;51.196;6.838;2022-10-17T03:38:23;14.52;;;8.18;;
37701;SDS011;23548;51.196;6.838;2022-10-17T03:40:55;12.07;;;8.00;;
37701;SDS011;23548;51.196;6.838;2022-10-17T03:43:21;14.30;;;8.13;;
37701;SDS011;23548;51.196;6.838;2022-10-17T03:45:47;12.75;;;8.55;;
37701;SDS011;23548;51.196;6.838;2022-10-17T03:48:12;13.43;;;7.82;;
37701;SDS011;23548;51.196;6.838;2022-10-17T03:50:38;15.07;;;7.95;;
37701;SDS011;23548;51.196;6.838;2022-10-17T03:53:04;12.93;;;7.75;;
37701;SDS011;23548;51.196;6.838;2022-10-17T03:55:30;12.23;;;7.97;;
37701;SDS011;23548;51.196;6.838;2022-10-17T03:57:55;9.90;;;8.07;;
37701;SDS011;23548;51.196;6.838;2022-10-17T04:00:21;8.93;;;7.68;;
37701;SDS011;23548;51.196;6.838;2022-10-17T04:02:47;17.40;;;7.82;;
37701;SDS011;23548;51.196;6.838;2022-10-17T04:05:13;12.45;;;7.28;;
37701;SDS011;23548;51.196;6.838;2022-10-17T04:07:39;12.82;;;7.57;;
37701;SDS011;23548;51.196;6.838;2022-10-17T04:10:04;10.18;;;7.32;;
37701;SDS011;23548;51.196;6.838;2022-10-17T04:12:31;10.70;;;7.82;;
37701;SDS011;23548;51.196;6.838;2022-10-17T04:14:57;12.57;;;8.20;;
37701;SDS011;23548;51.196;6.838;2022-10-17T04:17:22;11.55;;;7.75;;
37701;SDS011;23548;51.196;6.838;2022-10-17T04:19:48;15.68;;;7.90;;
37701;SDS011;23548;51.196;6.838;2022-10-17T04:22:14;9.82;;;7.55;;
37701;SDS011;23548;51.196;6.838;2022-10-17T04:24:40;8.80;;;7.57;;
37701;SDS011;23548;51.196;6.838;2022-10-17T04:27:06;11.65;;;7.47;;
37701;SDS011;23548;51.196;6.838;2022-10-17T04:29:32;12.90;;;7.80;;
37701;SDS011;23548;51.196;6.838;2022-10-17T04:31:58;8.75;;;7.50;;
37701;SDS011;23548;51.196;6.838;2022-10-17T04:34:23;9.27;;;7.65;;
37701;SDS011;23548;51.196;6.838;2022-10-17T04:36:49;9.10;;;7.65;;
37701;SDS011;23548;51.196;6.838;2022-10-17T04:39:16;13.60;;;7.57;;
37701;SDS011;23548;51.196;6.838;2022-10-17T04:41:42;10.88;;;7.93;;
37701;SDS011;23548;51.196;6.838;2022-10-17T04:44:09;14.23;;;7.10;;
37701;SDS011;23548;51.196;6.838;2022-10-17T04:46:34;17.95;;;6.82;;
37701;SDS011;23548;51.196;6.838;2022-10-17T04:49:00;12.75;;;7.72;;
37701;SDS011;23548;51.196;6.838;2022-10-17T04:51:26;10.00;;;7.38;;
37701;SDS011;23548;51.196;6.838;2022-10-17T04:53:52;10.60;;;6.97;;
37701;SDS011;23548;51.196;6.838;2022-10-17T04:56:20;8.95;;;6.82;;
37701;SDS011;23548;51.196;6.838;2022-10-17T04:58:48;14.65;;;6.97;;
37701;SDS011;23548;51.196;6.838;2022-10-17T05:01:18;10.70;;;6.97;;
37701;SDS011;23548;51.196;6.838;2022-10-17T05:03:46;10.95;;;7.30;;
37701;SDS011;23548;51.196;6.838;2022-10-17T05:06:16;10.73;;;7.80;;
37701;SDS011;23548;51.196;6.838;2022-10-17T05:08:44;12.43;;;7.47;;
37701;SDS011;23548;51.196;6.838;2022-10-17T05:11:23;9.32;;;7.53;;
37701;SDS011;23548;51.196;6.838;2022-10-17T05:13:51;8.80;;;6.65;;
37701;SDS011;23548;51.196;6.838;2022-10-17T05:16:18;10.50;;;6.95;;
37701;SDS011;23548;51.196;6.838;2022-10-17T05:18:46;13.57;;;7.70;;
37701;SDS011;23548;51.196;6.838;2022-10-17T05:21:16;11.30;;;7.10;;
37701;SDS011;23548;51.196;6.838;2022-10-17T05:23:42;13.32;;;6.43;;
37701;SDS011;23548;51.196;6.838;2022-10-17T05:26:08;9.88;;;6.85;;
37701;SDS011;23548;51.196;6.838;2022-10-17T05:28:34;10.52;;;7.10;;
37701;SDS011;23548;51.196;6.838;2022-10-17T05:31:02;10.98;;;7.13;;
37701;SDS011;23548;51.196;6.838;2022-10-17T05:33:32;12.68;;;6.80;;
37701;SDS011;23548;51.196;6.838;2022-10-17T05:35:58;14.85;;;7.85;;
37701;SDS011;23548;51.196;6.838;2022-10-17T05:38:24;12.80;;;7.53;;
37701;SDS011;23548;51.196;6.838;2022-10-17T05:40:50;12.52;;;7.07;;
37701;SDS011;23548;51.196;6.838;2022-10-17T05:43:16;9.23;;;6.80;;
37701;SDS011;23548;51.196;6.838;2022-10-17T05:45:42;11.18;;;6.70;;
37701;SDS011;23548;51.196;6.838;2022-10-17T05:48:08;13.55;;;7.43;;
37701;SDS011;23548;51.196;6.838;2022-10-17T05:50:34;15.98;;;7.65;;
37701;SDS011;23548;51.196;6.838;2022-10-17T05:53:00;13.68;;;7.50;;
37701;SDS011;23548;51.196;6.838;2022-10-17T05:55:26;13.20;;;7.32;;
37701;SDS011;23548;51.196;6.838;2022-10-17T05:57:52;11.95;;;7.35;;
37701;SDS011;23548;51.196;6.838;2022-10-17T06:00:19;11.77;;;7.45;;
37701;SDS011;23548;51.196;6.838;2022-10-17T06:02:45;12.07;;;7.40;;
37701;SDS011;23548;51.196;6.838;2022-10-17T06:05:12;13.63;;;7.25;;
37701;SDS011;23548;51.196;6.838;2022-10-17T06:07:38;13.10;;;7.40;;
37701;SDS011;23548;51.196;6.838;2022-10-17T06:10:04;12.77;;;7.45;;
37701;SDS011;23548;51.196;6.838;2022-10-17T06:12:30;11.60;;;6.97;;
37701;SDS011;23548;51.196;6.838;2022-10-17T06:14:56;12.82;;;8.02;;
37701;SDS011;23548;51.196;6.838;2022-10-17T06:17:23;9.23;;;7.30;;
37701;SDS011;23548;51.196;6.838;2022-10-17T06:19:49;15.80;;;7.88;;
37701;SDS011;23548;51.196;6.838;2022-10-17T06:22:14;9.95;;;7.00;;
37701;SDS011;23548;51.196;6.838;2022-10-17T06:24:40;11.98;;;7.55;;
37701;SDS011;23548;51.196;6.838;2022-10-17T06:27:06;10.60;;;7.57;;
37701;SDS011;23548;51.196;6.838;2022-10-17T06:29:32;12.27;;;7.38;;
37701;SDS011;23548;51.196;6.838;2022-10-17T06:31:58;10.82;;;7.18;;
37701;SDS011;23548;51.196;6.838;2022-10-17T06:34:24;12.45;;;7.47;;
37701;SDS011;23548;51.196;6.838;2022-10-17T06:36:51;12.55;;;7.40;;
37701;SDS011;23548;51.196;6.838;2022-10-17T06:39:17;11.07;;;7.05;;
37701;SDS011;23548;51.196;6.838;2022-10-17T06:41:43;9.73;;;6.90;;
37701;SDS011;23548;51.196;6.838;2022-10-17T06:44:09;11.00;;;7.38;;
37701;SDS011;23548;51.196;6.838;2022-10-17T06:46:36;13.50;;;7.35;;
37701;SDS011;23548;51.196;6.838;2022-10-17T06:49:02;13.38;;;6.97;;
37701;SDS011;23548;51.196;6.838;2022-10-17T06:51:33;10.98;;;6.90;;
37701;SDS011;23548;51.196;6.838;2022-10-17T06:54:00;9.30;;;6.88;;
37701;SDS011;23548;51.196;6.838;2022-10-17T06:56:26;15.32;;;7.05;;
37701;SDS011;23548;51.196;6.838;2022-10-17T06:58:51;9.95;;;6.80;;
37701;SDS011;23548;51.196;6.838;2022-10-17T07:01:18;11.98;;;6.95;;
37701;SDS011;23548;51.196;6.838;2022-10-17T07:03:46;10.18;;;7.50;;
37701;SDS011;23548;51.196;6.838;2022-10-17T07:06:14;13.05;;;6.90;;
37701;SDS011;23548;51.196;6.838;2022-10-17T07:08:43;18.17;;;7.50;;
37701;SDS011;23548;51.196;6.838;2022-10-17T07:11:13;10.60;;;6.57;;
37701;SDS011;23548;51.196;6.838;2022-10-17T07:13:41;9.93;;;6.63;;
37701;SDS011;23548;51.196;6.838;2022-10-17T07:16:07;8.68;;;6.70;;
37701;SDS011;23548;51.196;6.838;2022-10-17T07:18:33;12.02;;;6.60;;
37701;SDS011;23548;51.196;6.838;2022-10-17T07:20:59;9.02;;;6.65;;
37701;SDS011;23548;51.196;6.838;2022-10-17T07:23:25;12.57;;;6.50;;
37701;SDS011;23548;51.196;6.838;2022-10-17T07:25:51;15.00;;;6.50;;
37701;SDS011;23548;51.196;6.838;2022-10-17T07:28:17;12.02;;;6.20;;
37701;SDS011;23548;51.196;6.838;2022-10-17T07:30:44;11.43;;;6.45;;
37701;SDS011;23548;51.196;6.838;2022-10-17T07:33:09;10.52;;;5.88;;
37701;SDS011;23548;51.196;6.838;2022-10-17T07:35:36;11.32;;;6.40;;
37701;SDS011;23548;51.196;6.838;2022-10-17T07:38:05;11.80;;;5.45;;
37701;SDS011;23548;51.196;6.838;2022-10-17T07:40:31;13.68;;;6.30;;
37701;SDS011;23548;51.196;6.838;2022-10-17T07:42:57;13.38;;;6.18;;
37701;SDS011;23548;51.196;6.838;2022-10-17T07:45:23;12.77;;;6.40;;
37701;SDS011;23548;51.196;6.838;2022-10-17T07:47:54;16.38;;;6.18;;
37701;SDS011;23548;51.196;6.838;2022-10-17T07:50:21;12.48;;;5.50;;
37701;SDS011;23548;51.196;6.838;2022-10-17T07:52:47;15.30;;;5.82;;
37701;SDS011;23548;51.196;6.838;2022-10-17T07:55:13;10.80;;;5.75;;
37701;SDS011;23548;51.196;6.838;2022-10-17T07:57:39;10.63;;;5.95;;
37701;SDS011;23548;51.196;6.838;2022-10-17T08:00:05;10.63;;;5.55;;
37701;SDS011;23548;51.196;6.838;2022-10-17T08:02:32;13.20;;;5.90;;
37701;SDS011;23548;51.196;6.838;2022-10-17T08:04:58;7.68;;;5.53;;
37701;SDS011;23548;51.196;6.838;2022-10-17T08:07:24;11.00;;;5.85;;
37701;SDS011;23548;51.196;6.838;2022-10-17T08:09:50;9.13;;;5.53;;
37701;SDS011;23548;51.196;6.838;2022-10-17T08:12:16;10.13;;;5.63;;
37701;SDS011;23548;51.196;6.838;2022-10-17T08:14:42;12.55;;;5.18;;
37701;SDS011;23548;51.196;6.838;2022-10-17T08:17:08;10.63;;;5.45;;
37701;SDS011;23548;51.196;6.838;2022-10-17T08:19:37;8.23;;;4.95;;
37701;SDS011;23548;51.196;6.838;2022-10-17T08:22:04;8.93;;;4.72;;
37701;SDS011;23548;51.196;6.838;2022-10-17T08:24:30;10.80;;;7.78;;
37701;SDS011;23548;51.196;6.838;2022-10-17T08:26:56;12.30;;;5.50;;
37701;SDS011;23548;51.196;6.838;2022-10-17T08:29:22;8.40;;;5.22;;
37701;SDS011;23548;51.196;6.838;2022-10-17T08:31:48;11.40;;;5.40;;
37701;SDS011;23548;51.196;6.838;2022-10-17T08:34:14;9.00;;;5.47;;
37701;SDS011;23548;51.196;6.838;2022-10-17T08:36:40;13.02;;;4.68;;
37701;SDS011;23548;51.196;6.838;2022-10-17T08:39:06;11.43;;;5.18;;
37701;SDS011;23548;51.196;6.838;2022-10-17T08:41:52;9.90;;;4.80;;
37701;SDS011;23548;51.196;6.838;2022-10-17T08:47:44;7.18;;;4.80;;
37701;SDS011;23548;51.196;6.838;2022-10-17T08:53:20;11.27;;;5.03;;
37701;SDS011;23548;51.196;6.838;2022-10-17T08:55:52;10.02;;;5.25;;
37701;SDS011;23548;51.196;6.838;2022-10-17T08:58:19;9.60;;;4.50;;
37701;SDS011;23548;51.196;6.838;2022-10-17T09:01:00;16.00;;;5.00;;
37701;SDS011;23548;51.196;6.838;2022-10-17T09:06:18;8.07;;;4.75;;
37701;SDS011;23548;51.196;6.838;2022-10-17T09:08:51;13.02;;;5.00;;
37701;SDS011;23548;51.196;6.838;2022-10-17T09:11:47;14.70;;;6.25;;
37701;SDS011;23548;51.196;6.838;2022-10-17T09:17:25;9.32;;;4.93;;
37701;SDS011;23548;51.196;6.838;2022-10-17T09:22:56;10.32;;;5.20;;
37701;SDS011;23548;51.196;6.838;2022-10-17T09:25:23;12.27;;;5.00;;
37701;SDS011;23548;51.196;6.838;2022-10-17T09:28:09;20.77;;;5.25;;
37701;SDS011;23548;51.196;6.838;2022-10-17T09:31:42;11.50;;;4.95;;
37701;SDS011;23548;51.196;6.838;2022-10-17T09:33:37;6.45;;;4.57;;
37701;SDS011;23548;51.196;6.838;2022-10-17T09:36:48;5.10;;;4.05;;
37701;SDS011;23548;51.196;6.838;2022-10-17T09:39:00;8.45;;;4.85;;
37701;SDS011;23548;51.196;6.838;2022-10-17T09:44:13;12.43;;;4.88;;
37701;SDS011;23548;51.196;6.838;2022-10-17T09:46:39;6.03;;;4.45;;
37701;SDS011;23548;51.196;6.838;2022-10-17T09:51:42;10.50;;;5.10;;
37701;SDS011;23548;51.196;6.838;2022-10-17T09:54:25;7.97;;;4.15;;
37701;SDS011;23548;51.196;6.838;2022-10-17T09:57:02;10.23;;;4.90;;
37701;SDS011;23548;51.196;6.838;2022-10-17T09:59:37;8.27;;;4.75;;
37701;SDS011;23548;51.196;6.838;2022-10-17T10:05:20;10.02;;;4.93;;
37701;SDS011;23548;51.196;6.838;2022-10-17T10:07:31;13.23;;;5.40;;
37701;SDS011;23548;51.196;6.838;2022-10-17T10:09:59;12.30;;;5.43;;
37701;SDS011;23548;51.196;6.838;2022-10-17T10:12:33;14.23;;;5.47;;
37701;SDS011;23548;51.196;6.838;2022-10-17T10:15:04;11.68;;;5.15;;
37701;SDS011;23548;51.196;6.838;2022-10-17T10:18:06;12.32;;;5.47;;
37701;SDS011;23548;51.196;6.838;2022-10-17T10:20:49;16.27;;;5.70;;
37701;SDS011;23548;51.196;6.838;2022-10-17T10:23:27;8.93;;;5.40;;
37701;SDS011;23548;51.196;6.838;2022-10-17T10:28:30;9.25;;;4.75;;
37701;SDS011;23548;51.196;6.838;2022-10-17T10:31:01;8.93;;;4.88;;
37701;SDS011;23548;51.196;6.838;2022-10-17T10:33:29;32.03;;;17.10;;
37701;SDS011;23548;51.196;6.838;2022-10-17T10:38:26;11.02;;;6.13;;
37701;SDS011;23548;51.196;6.838;2022-10-17T10:40:56;15.82;;;5.18;;
37701;SDS011;23548;51.196;6.838;2022-10-17T10:43:35;8.95;;;5.03;;
37701;SDS011;23548;51.196;6.838;2022-10-17T10:48:54;13.30;;;5.80;;
37701;SDS011;23548;51.196;6.838;2022-10-17T10:54:14;15.30;;;5.80;;
37701;SDS011;23548;51.196;6.838;2022-10-17T10:56:48;11.13;;;5.47;;
37701;SDS011;23548;51.196;6.838;2022-10-17T10:59:18;14.05;;;5.35;;
37701;SDS011;23548;51.196;6.838;2022-10-17T11:07:37;8.27;;;5.63;;
37701;SDS011;23548;51.196;6.838;2022-10-17T11:12:54;10.07;;;5.10;;
37701;SDS011;23548;51.196;6.838;2022-10-17T11:18:10;9.07;;;4.85;;
37701;SDS011;23548;51.196;6.838;2022-10-17T11:20:49;11.45;;;5.57;;
37701;SDS011;23548;51.196;6.838;2022-10-17T11:25:58;11.98;;;5.38;;
37701;SDS011;23548;51.196;6.838;2022-10-17T11:28:27;9.25;;;5.18;;
37701;SDS011;23548;51.196;6.838;2022-10-17T11:33:29;9.02;;;5.57;;
37701;SDS011;23548;51.196;6.838;2022-10-17T11:36:00;13.77;;;5.90;;
37701;SDS011;23548;51.196;6.838;2022-10-17T11:41:33;11.57;;;5.72;;
37701;SDS011;23548;51.196;6.838;2022-10-17T11:46:52;16.30;;;6.53;;
37701;SDS011;23548;51.196;6.838;2022-10-17T11:49:27;7.97;;;5.60;;
37701;SDS011;23548;51.196;6.838;2022-10-17T11:52:03;15.18;;;6.70;;
37701;SDS011;23548;51.196;6.838;2022-10-17T11:54:41;10.38;;;5.50;;
37701;SDS011;23548;51.196;6.838;2022-10-17T12:03:06;10.65;;;5.72;;
37701;SDS011;23548;51.196;6.838;2022-10-17T12:06:02;12.27;;;5.25;;
37701;SDS011;23548;51.196;6.838;2022-10-17T12:08:31;11.95;;;5.65;;
37701;SDS011;23548;51.196;6.838;2022-10-17T12:13:58;11.63;;;5.80;;
37701;SDS011;23548;51.196;6.838;2022-10-17T12:22:16;9.48;;;5.70;;
37701;SDS011;23548;51.196;6.838;2022-10-17T12:29:47;12.75;;;6.03;;
37701;SDS011;23548;51.196;6.838;2022-10-17T12:32:14;12.18;;;5.90;;
37701;SDS011;23548;51.196;6.838;2022-10-17T12:34:51;8.90;;;5.60;;
37701;SDS011;23548;51.196;6.838;2022-10-17T12:37:58;10.73;;;5.85;;
37701;SDS011;23548;51.196;6.838;2022-10-17T12:48:11;9.13;;;6.68;;
37701;SDS011;23548;51.196;6.838;2022-10-17T12:56:21;12.15;;;5.70;;
37701;SDS011;23548;51.196;6.838;2022-10-17T12:59:10;15.15;;;6.20;;
37701;SDS011;23548;51.196;6.838;2022-10-17T13:01:42;12.18;;;5.75;;
37701;SDS011;23548;51.196;6.838;2022-10-17T13:04:11;9.75;;;6.55;;
37701;SDS011;23548;51.196;6.838;2022-10-17T13:06:42;15.02;;;6.47;;
37701;SDS011;23548;51.196;6.838;2022-10-17T13:09:17;12.70;;;6.38;;
37701;SDS011;23548;51.196;6.838;2022-10-17T13:11:45;9.60;;;5.97;;
37701;SDS011;23548;51.196;6.838;2022-10-17T13:14:20;13.02;;;6.78;;
37701;SDS011;23548;51.196;6.838;2022-10-17T13:16:54;14.88;;;6.43;;
37701;SDS011;23548;51.196;6.838;2022-10-17T13:19:23;13.52;;;6.60;;
37701;SDS011;23548;51.196;6.838;2022-10-17T13:22:01;14.05;;;6.53;;
37701;SDS011;23548;51.196;6.838;2022-10-17T13:24:29;9.40;;;5.78;;
37701;SDS011;23548;51.196;6.838;2022-10-17T13:26:57;12.70;;;5.82;;
37701;SDS011;23548;51.196;6.838;2022-10-17T13:29:23;13.60;;;5.75;;
37701;SDS011;23548;51.196;6.838;2022-10-17T13:31:53;12.32;;;5.10;;
37701;SDS011;23548;51.196;6.838;2022-10-17T13:34:29;12.00;;;5.18;;
37701;SDS011;23548;51.196;6.838;2022-10-17T13:37:00;49.88;;;8.55;;
37701;SDS011;23548;51.196;6.838;2022-10-17T13:39:42;13.60;;;5.70;;
37701;SDS011;23548;51.196;6.838;2022-10-17T13:42:16;28.73;;;6.78;;
37701;SDS011;23548;51.196;6.838;2022-10-17T13:44:51;10.68;;;4.63;;
37701;SDS011;23548;51.196;6.838;2022-10-17T13:47:24;8.82;;;4.85;;
37701;SDS011;23548;51.196;6.838;2022-10-17T13:49:55;13.30;;;4.95;;
37701;SDS011;23548;51.196;6.838;2022-10-17T13:52:23;10.27;;;4.13;;
37701;SDS011;23548;51.196;6.838;2022-10-17T13:54:51;9.75;;;4.05;;
37701;SDS011;23548;51.196;6.838;2022-10-17T13:57:25;9.70;;;4.70;;
37701;SDS011;23548;51.196;6.838;2022-10-17T14:00:06;8.60;;;3.88;;
37701;SDS011;23548;51.196;6.838;2022-10-17T14:02:43;8.82;;;4.10;;
37701;SDS011;23548;51.196;6.838;2022-10-17T14:07:37;14.43;;;4.53;;
37701;SDS011;23548;51.196;6.838;2022-10-17T14:10:16;9.10;;;4.28;;
37701;SDS011;23548;51.196;6.838;2022-10-17T14:12:55;9.30;;;4.43;;
37701;SDS011;23548;51.196;6.838;2022-10-17T14:15:24;8.85;;;3.97;;
37701;SDS011;23548;51.196;6.838;2022-10-17T14:17:56;11.45;;;3.78;;
37701;SDS011;23548;51.196;6.838;2022-10-17T14:20:27;12.88;;;4.10;;
37701;SDS011;23548;51.196;6.838;2022-10-17T14:22:56;9.07;;;3.92;;
37701;SDS011;23548;51.196;6.838;2022-10-17T14:30:40;10.75;;;3.65;;
37701;SDS011;23548;51.196;6.838;2022-10-17T14:33:20;6.22;;;3.40;;
37701;SDS011;23548;51.196;6.838;2022-10-17T14:35:57;13.32;;;3.75;;
37701;SDS011;23548;51.196;6.838;2022-10-17T14:38:24;5.18;;;3.80;;
37701;SDS011;23548;51.196;6.838;2022-10-17T14:40:52;10.15;;;3.85;;
37701;SDS011;23548;51.196;6.838;2022-10-17T14:43:33;9.18;;;4.03;;
37701;SDS011;23548;51.196;6.838;2022-10-17T14:45:59;9.73;;;3.85;;
37701;SDS011;23548;51.196;6.838;2022-10-17T14:48:26;10.70;;;3.72;;
37701;SDS011;23548;51.196;6.838;2022-10-17T14:53:32;10.68;;;4.03;;
37701;SDS011;23548;51.196;6.838;2022-10-17T14:56:00;5.70;;;3.42;;
37701;SDS011;23548;51.196;6.838;2022-10-17T14:58:29;10.65;;;3.70;;
37701;SDS011;23548;51.196;6.838;2022-10-17T15:00:56;11.93;;;4.25;;
37701;SDS011;23548;51.196;6.838;2022-10-17T15:03:23;8.60;;;4.18;;
37701;SDS011;23548;51.196;6.838;2022-10-17T15:05:50;9.90;;;3.95;;
37701;SDS011;23548;51.196;6.838;2022-10-17T15:08:18;9.23;;;3.92;;
37701;SDS011;23548;51.196;6.838;2022-10-17T15:10:46;6.72;;;3.95;;
37701;SDS011;23548;51.196;6.838;2022-10-17T15:13:13;11.35;;;4.03;;
37701;SDS011;23548;51.196;6.838;2022-10-17T15:15:40;33.78;;;6.22;;
37701;SDS011;23548;51.196;6.838;2022-10-17T15:18:09;10.27;;;4.18;;
37701;SDS011;23548;51.196;6.838;2022-10-17T15:20:36;11.18;;;4.53;;
37701;SDS011;23548;51.196;6.838;2022-10-17T15:23:05;13.88;;;4.93;;
37701;SDS011;23548;51.196;6.838;2022-10-17T15:25:31;9.80;;;4.60;;
37701;SDS011;23548;51.196;6.838;2022-10-17T15:27:58;13.73;;;4.55;;
37701;SDS011;23548;51.196;6.838;2022-10-17T15:30:25;9.93;;;4.65;;
37701;SDS011;23548;51.196;6.838;2022-10-17T15:32:57;12.32;;;4.70;;
37701;SDS011;23548;51.196;6.838;2022-10-17T15:35:27;9.52;;;4.75;;
37701;SDS011;23548;51.196;6.838;2022-10-17T15:37:55;11.77;;;4.95;;
37701;SDS011;23548;51.196;6.838;2022-10-17T15:40:22;12.05;;;5.15;;
37701;SDS011;23548;51.196;6.838;2022-10-17T15:42:52;11.02;;;4.97;;
37701;SDS011;23548;51.196;6.838;2022-10-17T15:45:20;9.55;;;4.70;;
37701;SDS011;23548;51.196;6.838;2022-10-17T15:47:54;10.77;;;4.80;;
37701;SDS011;23548;51.196;6.838;2022-10-17T15:50:23;13.30;;;5.13;;
37701;SDS011;23548;51.196;6.838;2022-10-17T15:52:49;12.50;;;4.93;;
37701;SDS011;23548;51.196;6.838;2022-10-17T15:55:16;11.40;;;5.40;;
37701;SDS011;23548;51.196;6.838;2022-10-17T15:57:43;11.45;;;5.50;;
37701;SDS011;23548;51.196;6.838;2022-10-17T16:00:15;9.40;;;5.88;;
37701;SDS011;23548;51.196;6.838;2022-10-17T16:02:41;13.05;;;6.03;;
37701;SDS011;23548;51.196;6.838;2022-10-17T16:05:12;13.85;;;6.38;;
37701;SDS011;23548;51.196;6.838;2022-10-17T16:07:53;9.00;;;5.90;;
37701;SDS011;23548;51.196;6.838;2022-10-17T16:10:19;10.98;;;6.90;;
37701;SDS011;23548;51.196;6.838;2022-10-17T16:12:46;13.65;;;6.53;;
37701;SDS011;23548;51.196;6.838;2022-10-17T16:15:21;10.70;;;6.63;;
37701;SDS011;23548;51.196;6.838;2022-10-17T16:17:56;14.05;;;6.80;;
37701;SDS011;23548;51.196;6.838;2022-10-17T16:20:22;12.30;;;6.88;;
37701;SDS011;23548;51.196;6.838;2022-10-17T16:22:49;10.50;;;7.07;;
37701;SDS011;23548;51.196;6.838;2022-10-17T16:25:20;17.13;;;7.75;;
37701;SDS011;23548;51.196;6.838;2022-10-17T16:27:49;15.90;;;8.05;;
37701;SDS011;23548;51.196;6.838;2022-10-17T16:30:16;16.52;;;8.65;;
37701;SDS011;23548;51.196;6.838;2022-10-17T16:32:43;17.27;;;7.88;;
37701;SDS011;23548;51.196;6.838;2022-10-17T16:35:10;12.07;;;8.13;;
37701;SDS011;23548;51.196;6.838;2022-10-17T16:37:49;16.23;;;9.07;;
37701;SDS011;23548;51.196;6.838;2022-10-17T16:40:18;14.98;;;8.55;;
37701;SDS011;23548;51.196;6.838;2022-10-17T16:42:44;15.50;;;9.05;;
37701;SDS011;23548;51.196;6.838;2022-10-17T16:45:17;15.32;;;9.07;;
37701;SDS011;23548;51.196;6.838;2022-10-17T16:47:48;12.45;;;8.65;;
37701;SDS011;23548;51.196;6.838;2022-10-17T16:50:18;13.32;;;9.05;;
37701;SDS011;23548;51.196;6.838;2022-10-17T16:52:48;16.63;;;9.93;;
37701;SDS011;23548;51.196;6.838;2022-10-17T16:55:16;17.13;;;10.00;;
37701;SDS011;23548;51.196;6.838;2022-10-17T16:57:43;14.52;;;9.90;;
37701;SDS011;23548;51.196;6.838;2022-10-17T17:00:13;18.85;;;10.25;;